Time;durP1;ratioP1;P1;durP2;ratioP2;P2;SDS_P1;SDS_P2;PMS_P1;PMS_P2;Temp;Humidity;BMP_temperature;BMP_pressure;BME280_temperature;BME280_humidity;BME280_pressure;Samples;Min_cycle;Max_cycle;Signal;HPM_P1;HPM_P2
2023/10/18 00:00:31;;;;;;;9.18;2.28;;;;;;;9.99;73.37;99433.56;5033936;28;20049;-50
2023/10/18 00:03:01;;;;;;;6.28;2.55;;;;;;;9.96;73.62;99431.03;5027806;28;20049;-48
2023/10/18 00:05:29;;;;;;;8.73;2.67;;;;;;;9.95;73.76;99435.34;5036803;28;20100;-46
2023/10/18 00:07:57;;;;;;;5.93;3.15;;;;;;;9.90;73.85;99421.59;5041631;28;20553;-46
2023/10/18 00:10:26;;;;;;;6.70;2.60;;;;;;;9.97;73.96;99422.41;5041133;28;20124;-50
2023/10/18 00:12:55;;;;;;;7.40;2.78;;;;;;;9.96;72.94;99426.69;5026519;28;20462;-50
2023/10/18 00:15:23;;;;;;;8.73;2.95;;;;;;;9.98;73.08;99418.94;5041718;28;20045;-47
2023/10/18 00:17:49;;;;;;;5.78;3.10;;;;;;;9.95;73.09;99413.78;5036402;28;20502;-50
2023/10/18 00:20:20;;;;;;;10.75;3.70;;;;;;;9.97;73.06;99423.22;5036837;28;20119;-50
2023/10/18 00:22:47;;;;;;;6.18;3.30;;;;;;;9.91;73.36;99418.13;5032620;28;20056;-47
2023/10/18 00:25:15;;;;;;;9.93;3.90;;;;;;;9.94;73.79;99410.34;5032391;28;20669;-50
2023/10/18 00:27:46;;;;;;;8.38;3.22;;;;;;;9.92;73.80;99412.09;5029461;28;20075;-48
2023/10/18 00:30:13;;;;;;;6.97;3.75;;;;;;;9.90;73.31;99399.16;5040793;28;20056;-48
2023/10/18 00:32:42;;;;;;;8.52;3.30;;;;;;;9.89;73.79;99396.59;5026389;28;20050;-49
2023/10/18 00:35:20;;;;;;;6.57;3.33;;;;;;;9.94;73.27;99391.38;5040185;28;20422;-51
2023/10/18 00:37:50;;;;;;;10.48;3.10;;;;;;;9.85;74.00;99397.50;5027378;28;20045;-51
2023/10/18 00:40:33;;;;;;;8.65;3.47;;;;;;;9.89;73.57;99397.47;5036641;28;20508;-47
2023/10/18 00:45:43;;;;;;;8.20;2.97;;;;;;;9.89;73.50;99386.25;5018507;28;20422;-48
2023/10/18 00:48:11;;;;;;;9.77;3.22;;;;;;;9.86;73.56;99373.38;5014764;28;20137;-49
2023/10/18 00:50:42;;;;;;;8.55;3.28;;;;;;;9.82;74.20;99366.47;5010951;28;20061;-49
2023/10/18 00:53:11;;;;;;;12.90;3.03;;;;;;;9.85;73.60;99371.63;5017108;28;20629;-54
2023/10/18 00:55:37;;;;;;;8.80;2.70;;;;;;;9.73;74.45;99368.28;5009280;28;20054;-47
2023/10/18 00:58:08;;;;;;;5.30;2.72;;;;;;;9.83;73.83;99373.41;5014910;28;20046;-50
2023/10/18 01:00:40;;;;;;;8.73;3.35;;;;;;;9.84;73.88;99370.78;5004161;28;20137;-49
2023/10/18 01:03:09;;;;;;;13.45;3.20;;;;;;;9.82;73.97;99366.47;5007181;28;20396;-47
2023/10/18 01:05:36;;;;;;;7.63;3.22;;;;;;;9.82;73.98;99372.53;5013541;28;20085;-49
2023/10/18 01:08:07;;;;;;;11.32;3.40;;;;;;;9.83;73.61;99368.22;5016908;28;20053;-47
2023/10/18 01:10:36;;;;;;;9.38;3.70;;;;;;;9.82;74.40;99361.31;5012839;28;20419;-46
2023/10/18 01:13:04;;;;;;;7.53;3.42;;;;;;;9.85;73.63;99356.09;5009206;28;20045;-49
2023/10/18 01:15:31;;;;;;;9.02;3.47;;;;;;;9.83;74.47;99352.69;5007277;28;20080;-50
2023/10/18 01:17:58;;;;;;;7.93;3.08;;;;;;;9.89;74.11;99348.31;5008948;28;20057;-51
2023/10/18 01:20:33;;;;;;;10.07;3.40;;;;;;;9.90;74.05;99338.84;5006115;28;20054;-50
2023/10/18 01:23:01;;;;;;;11.45;3.85;;;;;;;9.89;73.94;99340.56;5016439;28;20073;-50
2023/10/18 01:25:28;;;;;;;11.90;3.75;;;;;;;9.83;74.52;99337.19;5015438;28;20042;-46
2023/10/18 01:27:55;;;;;;;10.80;3.63;;;;;;;9.87;74.18;99333.69;5015981;28;20134;-48
2023/10/18 01:30:22;;;;;;;10.55;4.55;;;;;;;9.87;74.04;99328.50;5007086;28;20046;-53
2023/10/18 01:32:49;;;;;;;6.53;3.25;;;;;;;9.86;74.21;99329.41;5011576;28;20042;-51
2023/10/18 01:35:16;;;;;;;11.60;3.38;;;;;;;9.89;74.02;99326.75;5000024;28;20041;-48
2023/10/18 01:37:43;;;;;;;10.80;4.18;;;;;;;9.90;74.20;99318.13;5010262;28;20069;-47
2023/10/18 01:42:57;;;;;;;6.93;3.10;;;;;;;9.89;73.84;99311.22;5011443;28;20057;-48
2023/10/18 01:45:30;;;;;;;8.75;3.75;;;;;;;9.91;73.99;99299.16;5008963;28;20042;-49
2023/10/18 01:47:57;;;;;;;9.65;3.75;;;;;;;9.90;74.17;99300.03;5007823;28;20061;-48
2023/10/18 01:50:24;;;;;;;9.68;2.97;;;;;;;9.86;74.28;99291.44;5009393;28;20632;-50
2023/10/18 01:52:50;;;;;;;10.60;3.92;;;;;;;9.92;74.24;99289.66;5008320;28;20042;-48
2023/10/18 01:55:17;;;;;;;11.25;3.83;;;;;;;9.94;74.08;99288.78;5013161;28;20046;-50
2023/10/18 01:57:45;;;;;;;10.13;4.30;;;;;;;9.94;74.68;99285.31;4989577;28;20137;-52
2023/10/18 02:00:25;;;;;;;10.07;3.65;;;;;;;9.94;74.57;99282.72;4988976;28;20190;-49
2023/10/18 02:02:52;;;;;;;11.85;3.72;;;;;;;9.96;73.89;99276.66;4976309;28;20050;-54
2023/10/18 02:05:19;;;;;;;12.40;4.20;;;;;;;9.96;74.62;99274.06;4994220;28;20050;-46
2023/10/18 02:07:47;;;;;;;5.63;2.90;;;;;;;9.99;73.75;99273.16;4997783;28;20054;-51
2023/10/18 02:10:23;;;;;;;8.63;3.42;;;;;;;9.95;74.30;99264.59;5003232;28;20038;-51
2023/10/18 02:12:50;;;;;;;10.13;4.07;;;;;;;9.95;74.66;99269.78;4988859;28;20109;-50
2023/10/18 02:15:17;;;;;;;7.97;3.20;;;;;;;9.98;74.55;99274.06;4995991;28;20074;-47
2023/10/18 02:17:46;;;;;;;11.68;4.32;;;;;;;10.00;74.01;99261.97;4990819;28;20062;-47
2023/10/18 02:20:25;;;;;;;7.03;3.20;;;;;;;10.00;73.92;99265.38;4987545;28;20132;-47
2023/10/18 02:22:59;;;;;;;7.45;3.17;;;;;;;9.99;74.45;99255.94;5001790;28;20046;-50
2023/10/18 02:25:44;;;;;;;7.93;3.60;;;;;;;9.98;74.37;99256.81;4988983;28;20100;-48
2023/10/18 02:28:29;;;;;;;13.65;3.72;;;;;;;9.99;74.69;99248.16;4996984;28;20082;-47
2023/10/18 02:30:58;;;;;;;11.38;2.92;;;;;;;9.97;74.49;99252.50;4989502;28;20058;-47
2023/10/18 02:36:06;;;;;;;11.98;3.67;;;;;;;10.01;74.06;99228.31;5074143;27;20399;-51
2023/10/18 02:38:33;;;;;;;10.45;3.65;;;;;;;9.96;74.44;99224.91;5062888;28;20044;-52
2023/10/18 02:41:04;;;;;;;9.82;3.78;;;;;;;9.94;74.78;99225.81;5064870;28;20060;-48
2023/10/18 02:43:31;;;;;;;8.57;3.90;;;;;;;9.96;74.05;99219.75;5063486;28;20432;-52
2023/10/18 02:45:58;;;;;;;8.70;3.40;;;;;;;9.99;74.04;99211.94;5067285;28;20051;-46
2023/10/18 02:48:25;;;;;;;7.30;2.75;;;;;;;9.91;74.92;99216.38;5072039;28;20127;-51
2023/10/18 02:50:54;;;;;;;10.75;3.53;;;;;;;9.95;74.66;99202.53;5066390;28;20417;-47
2023/10/18 02:53:21;;;;;;;9.50;4.00;;;;;;;9.95;74.64;99212.88;5068976;28;20525;-50
2023/10/18 02:55:55;;;;;;;15.05;4.28;;;;;;;9.95;74.05;99207.69;5062942;28;20044;-51
2023/10/18 02:58:27;;;;;;;9.00;3.75;;;;;;;9.96;74.70;99209.41;5060620;28;20482;-49
2023/10/18 03:00:56;;;;;;;17.02;4.15;;;;;;;9.98;74.69;99204.19;5062669;28;20107;-49
2023/10/18 03:03:23;;;;;;;11.13;4.30;;;;;;;9.94;74.81;99206.00;5063778;28;20131;-49
2023/10/18 03:05:51;;;;;;;12.43;3.30;;;;;;;9.92;74.27;99192.22;5063675;28;20686;-48
2023/10/18 03:08:20;;;;;;;8.82;2.97;;;;;;;9.93;74.35;99188.75;5068230;28;20053;-51
2023/10/18 03:10:48;;;;;;;7.65;4.53;;;;;;;9.91;74.37;99180.16;5068394;28;20051;-50
2023/10/18 03:13:17;;;;;;;9.10;4.68;;;;;;;9.91;74.66;99175.00;5060977;28;20068;-48
2023/10/18 03:18:34;;;;;;;11.23;4.07;;;;;;;9.90;74.58;99165.53;5055572;28;20036;-48
2023/10/18 03:21:07;;;;;;;11.25;4.82;;;;;;;9.90;74.44;99160.34;5062640;28;20122;-48
2023/10/18 03:23:44;;;;;;;11.27;3.35;;;;;;;9.82;75.00;99149.22;5062048;28;20524;-49
2023/10/18 03:26:11;;;;;;;8.13;3.38;;;;;;;9.82;74.98;99150.09;5061647;28;20048;-49
2023/10/18 03:28:41;;;;;;;9.63;4.20;;;;;;;9.85;74.42;99144.88;5060473;28;20048;-47
2023/10/18 03:31:21;;;;;;;8.93;4.45;;;;;;;9.83;75.05;99145.78;5062679;28;20053;-49
2023/10/18 03:33:52;;;;;;;12.10;4.20;;;;;;;9.83;74.29;99130.28;5053458;28;20056;-47
2023/10/18 03:36:21;;;;;;;8.73;3.60;;;;;;;9.84;75.14;99137.16;5060721;28;20126;-49
2023/10/18 03:41:40;;;;;;;8.07;3.75;;;;;;;9.82;74.41;99118.19;5059960;28;20409;-49
2023/10/18 03:44:08;;;;;;;10.25;4.50;;;;;;;9.78;74.70;99114.81;5062286;28;20522;-48
2023/10/18 03:46:55;;;;;;;11.05;4.10;;;;;;;9.80;75.01;99105.31;5046557;28;20045;-49
2023/10/18 03:52:16;;;;;;;13.70;5.35;;;;;;;9.76;74.98;99104.50;5061176;28;20387;-48
2023/10/18 03:57:38;;;;;;;15.85;6.95;;;;;;;9.74;74.59;99090.75;5042183;28;20045;-49
2023/10/18 04:03:08;;;;;;;9.55;4.20;;;;;;;9.69;74.75;99079.59;5016311;28;20399;-49
2023/10/18 04:08:17;;;;;;;18.60;7.05;;;;;;;10.11;74.25;99078.09;5060114;27;20409;-47
2023/10/18 04:10:46;;;;;;;13.55;6.65;;;;;;;9.84;75.21;99070.78;5027387;28;20045;-48
2023/10/18 04:13:14;;;;;;;16.13;4.40;;;;;;;9.73;75.24;99063.16;5022189;28;20479;-52
2023/10/18 04:15:45;;;;;;;10.77;4.38;;;;;;;9.71;74.65;99062.34;5027510;28;20041;-48
2023/10/18 04:18:13;;;;;;;14.63;6.53;;;;;;;9.70;74.87;99068.41;5028937;28;20053;-48
2023/10/18 04:20:46;;;;;;;14.98;6.45;;;;;;;9.69;74.86;99071.00;5024590;28;20053;-49
2023/10/18 04:23:15;;;;;;;14.70;6.55;;;;;;;9.64;74.95;99063.31;5036048;28;20573;-50
2023/10/18 04:25:42;;;;;;;15.80;6.63;;;;;;;9.62;75.12;99054.72;5019858;28;20045;-50
2023/10/18 04:28:10;;;;;;;14.07;6.32;;;;;;;9.61;74.98;99047.84;5025170;28;20049;-47
2023/10/18 04:30:38;;;;;;;12.68;7.22;;;;;;;9.58;75.09;99047.88;5033247;28;20694;-50
2023/10/18 04:35:52;;;;;;;11.15;4.63;;;;;;;9.54;75.40;99035.88;5032439;28;20394;-52
2023/10/18 04:38:23;;;;;;;12.45;5.32;;;;;;;9.50;75.10;99030.75;5013669;28;20109;-48
2023/10/18 04:41:08;;;;;;;15.15;5.18;;;;;;;9.49;74.99;99033.38;5013832;28;20128;-48
2023/10/18 04:43:36;;;;;;;14.35;6.15;;;;;;;9.45;74.94;99027.38;5005555;28;20056;-48
2023/10/18 04:46:14;;;;;;;11.23;5.55;;;;;;;9.43;75.41;99026.56;5006085;28;20130;-47
2023/10/18 04:51:26;;;;;;;12.70;4.60;;;;;;;9.42;75.52;99011.91;5066755;27;20400;-51
2023/10/18 04:56:34;;;;;;;13.77;5.07;;;;;;;9.42;75.28;98996.41;5033776;27;20899;-46
2023/10/18 05:01:56;;;;;;;11.32;5.85;;;;;;;9.36;75.69;98973.25;5091680;27;20391;-50
2023/10/18 05:04:29;;;;;;;11.43;6.32;;;;;;;9.35;75.41;98969.81;5061414;28;20045;-48
2023/10/18 05:07:00;;;;;;;13.55;5.70;;;;;;;9.35;75.54;98968.94;5057644;28;20087;-46
2023/10/18 05:09:30;;;;;;;11.43;5.90;;;;;;;9.32;76.11;98959.50;5050957;28;20051;-46
2023/10/18 05:11:59;;;;;;;13.88;6.47;;;;;;;9.33;75.82;98960.38;5057204;28;20056;-49
2023/10/18 05:14:35;;;;;;;9.95;5.63;;;;;;;9.32;76.12;98953.50;5056491;28;20045;-50
2023/10/18 05:17:21;;;;;;;13.70;6.60;;;;;;;9.30;75.43;98950.94;5065858;28;20412;-47
2023/10/18 05:19:49;;;;;;;;;;;;;;;9.19;76.43;98948.50;5077425;27;20639;-51
2023/10/18 05:22:20;;;;;;;14.65;6.72;;;;;;;9.25;76.14;98938.09;5073053;28;19920;-48
2023/10/18 05:24:55;;;;;;;11.63;7.10;;;;;;;9.27;75.62;98935.47;5099749;28;20044;-47
2023/10/18 05:27:24;;;;;;;11.48;6.75;;;;;;;9.25;76.09;98938.09;5084806;28;20044;-53
2023/10/18 05:29:52;;;;;;;13.18;6.22;;;;;;;9.29;75.88;98930.28;5093931;28;20512;-51
2023/10/18 05:35:21;;;;;;;11.35;6.15;;;;;;;9.21;76.02;98923.50;5101705;28;20055;-49
2023/10/18 05:43:12;;;;;;;16.20;5.18;;;;;;;9.22;76.09;98932.13;5075405;27;20407;-49
2023/10/18 05:45:41;;;;;;;10.93;4.88;;;;;;;9.23;76.01;98929.50;5042839;28;20045;-50
2023/10/18 05:48:24;;;;;;;10.73;5.10;;;;;;;9.22;75.93;98922.63;5034369;28;20746;-48
2023/10/18 05:53:43;;;;;;;13.05;5.50;;;;;;;9.19;76.46;98925.25;5028879;28;20057;-50
2023/10/18 05:56:11;;;;;;;13.45;6.50;;;;;;;9.21;76.23;98914.91;5032454;28;20481;-50
2023/10/18 05:58:38;;;;;;;13.40;4.82;;;;;;;9.23;75.99;98910.56;5048000;28;20055;-49
2023/10/18 06:01:04;;;;;;;12.40;5.03;;;;;;;9.23;76.23;98908.00;5038509;28;20053;-49
2023/10/18 06:03:47;;;;;;;18.55;4.93;;;;;;;9.21;76.07;98900.25;5034480;28;20042;-51
2023/10/18 06:06:13;;;;;;;7.82;3.65;;;;;;;9.17;76.35;98893.44;5034494;28;20048;-48
2023/10/18 06:08:41;;;;;;;12.00;4.60;;;;;;;9.18;76.38;98892.56;5026213;28;20054;-50
2023/10/18 06:11:08;;;;;;;12.85;4.93;;;;;;;9.18;76.09;98895.13;5024505;28;20072;-47
2023/10/18 06:13:36;;;;;;;16.42;5.20;;;;;;;9.18;76.54;98889.97;5014982;28;20053;-47
2023/10/18 06:16:18;;;;;;;12.80;4.75;;;;;;;9.16;75.80;98876.25;5023647;28;20076;-50
2023/10/18 06:18:48;;;;;;;11.73;4.00;;;;;;;9.15;75.89;98874.50;5018951;28;20065;-51
2023/10/18 06:21:19;;;;;;;15.27;4.80;;;;;;;9.18;76.06;98874.47;5021216;28;20129;-55
2023/10/18 06:23:55;;;;;;;12.98;4.88;;;;;;;9.14;75.73;98867.66;5023972;28;20046;-50
2023/10/18 06:26:33;;;;;;;15.65;5.30;;;;;;;9.12;76.39;98870.25;5023450;28;20045;-48
2023/10/18 06:29:01;;;;;;;18.33;7.03;;;;;;;9.11;76.42;98857.34;5027601;28;20450;-50
2023/10/18 06:31:29;;;;;;;12.02;4.40;;;;;;;9.10;76.05;98855.66;5042784;28;20171;-50
2023/10/18 06:33:59;;;;;;;11.95;3.97;;;;;;;9.12;76.50;98856.50;5001291;28;20050;-49
2023/10/18 06:36:26;;;;;;;12.68;4.35;;;;;;;9.12;76.69;98853.91;5018232;28;20049;-50
2023/10/18 06:38:53;;;;;;;19.15;5.25;;;;;;;9.14;76.25;98852.16;5020129;28;20057;-49
2023/10/18 06:41:21;;;;;;;11.68;4.32;;;;;;;9.19;75.78;98852.91;5032735;28;20055;-52
2023/10/18 06:43:49;;;;;;;12.30;4.90;;;;;;;9.21;76.07;98838.25;5035246;28;20049;-49
2023/10/18 06:46:38;;;;;;;12.40;4.22;;;;;;;9.23;76.59;98845.97;5028693;28;20095;-49
2023/10/18 06:49:10;;;;;;;15.38;5.13;;;;;;;9.22;76.31;98839.94;5055683;28;20131;-50
2023/10/18 06:51:43;;;;;;;11.05;4.32;;;;;;;9.26;76.25;98831.25;5071654;28;20041;-52
2023/10/18 06:54:13;;;;;;;12.70;4.50;;;;;;;9.30;76.60;98832.09;5053020;28;20107;-49
2023/10/18 06:56:45;;;;;;;15.25;4.95;;;;;;;9.31;76.51;98825.16;5047134;28;20128;-49
2023/10/18 06:59:13;;;;;;;10.68;3.78;;;;;;;9.34;76.18;98817.38;5064414;28;20044;-49
2023/10/18 07:01:41;;;;;;;18.42;4.88;;;;;;;9.37;76.43;98817.31;5044489;28;20170;-50
2023/10/18 07:06:56;;;;;;;12.93;4.13;;;;;;;9.41;76.46;98798.28;5012563;28;20131;-49
2023/10/18 07:09:26;;;;;;;10.65;4.60;;;;;;;9.43;76.51;98801.72;5043898;28;20064;-51
2023/10/18 07:11:57;;;;;;;11.15;4.28;;;;;;;9.45;76.91;98799.94;5050280;28;20042;-51
2023/10/18 07:14:24;;;;;;;13.27;4.10;;;;;;;9.50;76.61;98800.69;5019024;28;20098;-52
2023/10/18 07:16:55;;;;;;;11.48;4.43;;;;;;;9.52;76.64;98793.78;5057160;28;20046;-50
2023/10/18 07:19:33;;;;;;;6.75;2.67;;;;;;;9.56;76.77;98796.31;5057809;28;20049;-48
2023/10/18 07:22:06;;;;;;;11.88;3.90;;;;;;;9.61;77.27;98781.56;5045365;28;20037;-49
2023/10/18 07:24:36;;;;;;;6.70;2.78;;;;;;;9.55;77.78;98782.53;5045681;28;20062;-50
2023/10/18 07:27:04;;;;;;;10.82;3.63;;;;;;;9.67;76.91;98773.69;5038302;28;20092;-48
2023/10/18 07:29:36;;;;;;;13.85;3.75;;;;;;;9.68;77.78;98775.41;5043079;28;20052;-50
2023/10/18 07:32:06;;;;;;;8.70;3.28;;;;;;;9.70;78.32;98771.06;5050473;28;20389;-50
2023/10/18 07:34:36;;;;;;;11.57;4.07;;;;;;;9.79;78.07;98771.75;5047387;28;20143;-51
2023/10/18 07:37:17;;;;;;;15.85;3.63;;;;;;;9.81;78.14;98764.78;5053820;28;20045;-50
2023/10/18 07:39:56;;;;;;;14.48;4.22;;;;;;;9.91;77.78;98766.31;5051085;28;20561;-50
2023/10/18 07:42:26;;;;;;;9.63;3.75;;;;;;;9.93;78.67;98774.06;5042034;28;20072;-52
2023/10/18 07:44:55;;;;;;;8.93;3.05;;;;;;;10.01;77.83;98766.97;5025201;28;20052;-48
2023/10/18 07:47:25;;;;;;;8.25;3.17;;;;;;;10.03;78.82;98765.19;5055996;28;20053;-49
2023/10/18 07:49:58;;;;;;;12.35;4.35;;;;;;;10.09;78.30;98754.72;5046261;28;20049;-50
2023/10/18 07:52:25;;;;;;;11.52;3.70;;;;;;;10.11;78.72;98762.47;5029644;28;20048;-50
2023/10/18 07:54:52;;;;;;;7.15;3.17;;;;;;;10.07;79.70;98755.66;5053246;28;20509;-44
2023/10/18 07:57:29;;;;;;;7.15;3.13;;;;;;;10.11;79.15;98747.81;5059676;28;20052;-47
2023/10/18 08:00:21;;;;;;;;;;;;;;;10.12;79.49;98753.81;5042428;28;20543;-48
2023/10/18 08:02:43;;;;;;;8.35;3.10;;;;;;;10.24;78.88;98743.19;5030879;28;19921;-48
2023/10/18 08:05:11;;;;;;;8.18;3.00;;;;;;;10.32;78.03;98736.97;5044581;28;20055;-48
2023/10/18 08:07:38;;;;;;;7.57;2.60;;;;;;;10.35;78.45;98742.09;5053835;28;20045;-46
2023/10/18 08:10:08;;;;;;;10.23;3.38;;;;;;;10.40;78.82;98737.66;5047248;28;20534;-45
2023/10/18 08:12:35;;;;;;;7.28;3.60;;;;;;;10.46;77.84;98732.38;5047170;28;20068;-46
2023/10/18 08:15:13;;;;;;;9.57;3.05;;;;;;;10.48;78.16;98732.34;5046240;28;20136;-45
2023/10/18 08:23:14;;;;;;;10.75;4.22;;;;;;;10.62;78.23;98732.00;5088971;27;21291;-48
2023/10/18 08:25:47;;;;;;;14.05;5.82;;;;;;;10.66;78.31;98728.47;5035200;28;20081;-50
2023/10/18 08:28:14;;;;;;;8.05;3.60;;;;;;;10.61;78.65;98717.38;5036226;28;20972;-47
2023/10/18 08:33:30;;;;;;;11.45;4.00;;;;;;;10.67;78.05;98704.25;5007178;28;20932;-49
2023/10/18 08:35:58;;;;;;;7.53;4.03;;;;;;;10.69;78.07;98689.53;5001338;28;20057;-52
2023/10/18 08:38:26;;;;;;;12.80;4.00;;;;;;;10.67;78.27;98688.72;5001485;28;20069;-50
2023/10/18 08:41:11;;;;;;;17.70;4.57;;;;;;;10.71;78.84;98677.41;5002155;28;20042;-47
2023/10/18 08:43:52;;;;;;;10.90;4.72;;;;;;;10.74;78.34;98668.72;4996018;28;22244;-49
2023/10/18 08:46:24;;;;;;;12.27;3.53;;;;;;;10.75;78.59;98666.09;5002274;28;20049;-48
2023/10/18 08:48:54;;;;;;;10.05;3.78;;;;;;;10.73;79.33;98664.41;5002030;28;20069;-48
2023/10/18 08:51:25;;;;;;;11.38;4.50;;;;;;;10.78;79.61;98655.63;5002946;28;20057;-47
2023/10/18 08:53:55;;;;;;;9.80;4.22;;;;;;;10.80;79.57;98640.91;5002689;28;20058;-50
2023/10/18 08:56:29;;;;;;;15.27;5.72;;;;;;;10.88;79.39;98634.69;5003563;28;20058;-48
2023/10/18 08:58:58;;;;;;;8.90;4.10;;;;;;;10.92;78.43;98628.53;5030624;28;20053;-51
2023/10/18 09:01:25;;;;;;;7.63;3.58;;;;;;;10.98;79.08;98627.50;5000131;28;20077;-49
2023/10/18 09:03:55;;;;;;;14.18;4.95;;;;;;;10.97;78.70;98613.69;5003024;28;20072;-49
2023/10/18 09:06:22;;;;;;;21.20;5.50;;;;;;;11.01;78.64;98617.91;5003143;28;20058;-49
2023/10/18 09:09:01;;;;;;;11.20;5.40;;;;;;;11.01;78.84;98615.31;5001820;28;20042;-47
2023/10/18 09:11:31;;;;;;;13.15;5.13;;;;;;;11.10;78.60;98613.34;5000053;28;20137;-47
2023/10/18 09:14:15;;;;;;;10.07;4.60;;;;;;;11.12;79.03;98596.03;5002449;28;20053;-46
2023/10/18 09:16:46;;;;;;;12.60;5.20;;;;;;;11.15;79.62;98608.91;5002846;28;20153;-50
2023/10/18 09:19:13;;;;;;;13.82;4.57;;;;;;;11.18;78.69;98593.28;5001708;28;20049;-47
2023/10/18 09:24:23;;;;;;;18.10;8.00;;;;;;;11.57;78.48;98587.81;5025927;28;20418;-46
2023/10/18 09:26:51;;;;;;;14.52;6.28;;;;;;;11.44;79.41;98582.16;5003685;28;20044;-51
2023/10/18 09:29:18;;;;;;;13.02;5.38;;;;;;;11.46;79.39;98579.50;5015759;28;20131;-50
2023/10/18 09:31:50;;;;;;;18.75;7.03;;;;;;;11.55;78.44;98568.84;5005834;28;20046;-50
2023/10/18 09:34:18;;;;;;;9.85;5.60;;;;;;;11.57;79.57;98567.06;5001396;28;20038;-52
2023/10/18 09:36:54;;;;;;;13.25;6.60;;;;;;;11.70;78.00;98551.13;5015459;28;20069;-51
2023/10/18 09:39:24;;;;;;;15.60;5.18;;;;;;;11.74;79.10;98555.31;5009119;28;20573;-50
2023/10/18 09:41:52;;;;;;;11.57;6.38;;;;;;;11.76;78.16;98550.06;5035614;28;20050;-52
2023/10/18 09:44:18;;;;;;;13.43;6.82;;;;;;;11.80;78.56;98546.50;5002568;28;20050;-48
2023/10/18 09:46:49;;;;;;;13.43;6.80;;;;;;;11.87;78.10;98552.31;5016160;28;20145;-51
2023/10/18 09:49:21;;;;;;;11.70;6.93;;;;;;;11.91;78.92;98543.53;5025532;28;20057;-57
2023/10/18 09:51:53;;;;;;;12.27;6.43;;;;;;;11.93;78.21;98533.97;5024178;28;20133;-51
2023/10/18 09:54:22;;;;;;;15.95;7.07;;;;;;;11.98;78.54;98521.69;5029556;28;20045;-50
2023/10/18 09:56:54;;;;;;;14.55;5.43;;;;;;;12.00;78.06;98519.03;5009106;28;20048;-50
2023/10/18 09:59:26;;;;;;;10.98;6.57;;;;;;;12.01;78.00;98511.22;5021050;28;20050;-49
2023/10/18 10:02:00;;;;;;;7.72;5.72;;;;;;;12.11;78.24;98523.91;5002924;28;20563;-49
2023/10/18 10:04:32;;;;;;;11.25;6.82;;;;;;;12.18;78.33;98517.59;5020708;28;20048;-49
2023/10/18 10:09:49;;;;;;;;;;;;;;;12.23;78.34;98507.94;5024394;28;20053;-52
2023/10/18 10:12:17;;;;;;;10.13;5.38;;;;;;;12.38;76.96;98503.09;5034401;28;19932;-49
2023/10/18 10:14:45;;;;;;;13.88;5.68;;;;;;;12.43;76.82;98501.19;4993564;28;20111;-48
2023/10/18 10:17:17;;;;;;;16.42;6.55;;;;;;;12.51;77.06;98483.59;5009484;28;20054;-48
2023/10/18 10:19:50;;;;;;;9.07;5.55;;;;;;;12.50;77.64;98479.28;5009718;28;20161;-50
2023/10/18 10:22:23;;;;;;;10.38;6.05;;;;;;;12.62;76.74;98482.31;5011903;28;20050;-51
2023/10/18 10:25:04;;;;;;;13.43;7.07;;;;;;;12.59;77.11;98473.75;5001992;28;20057;-49
2023/10/18 10:27:53;;;;;;;11.05;4.55;;;;;;;12.65;76.77;98461.44;5009246;28;20065;-48
2023/10/18 10:30:25;;;;;;;9.80;5.28;;;;;;;12.74;77.13;98461.13;5007789;28;20050;-52
2023/10/18 10:32:58;;;;;;;9.73;3.97;;;;;;;12.78;76.35;98444.50;5005080;28;20415;-53
2023/10/18 10:35:29;;;;;;;11.60;6.53;;;;;;;12.83;76.44;98450.38;4989549;28;20128;-48
2023/10/18 10:40:43;;;;;;;11.82;4.47;;;;;;;12.84;76.38;98428.69;5054750;27;20386;-52
2023/10/18 10:43:11;;;;;;;9.75;4.95;;;;;;;12.84;76.16;98436.47;5014610;28;20056;-47
2023/10/18 10:51:12;;;;;;;13.00;4.43;;;;;;;12.95;76.14;98412.69;5039745;27;20382;-48
2023/10/18 10:59:15;;;;;;;10.98;4.53;;;;;;;13.13;75.69;98399.88;5064781;27;20389;-51
2023/10/18 11:07:00;;;;;;;11.18;7.30;;;;;;;13.50;74.78;98379.34;5098944;27;20382;-46
2023/10/18 11:09:32;;;;;;;16.15;6.00;;;;;;;13.60;75.14;98378.06;5024130;28;20052;-47
2023/10/18 11:12:08;;;;;;;14.10;6.07;;;;;;;13.72;75.31;98376.69;5013141;28;20049;-51
2023/10/18 11:14:36;;;;;;;12.10;6.22;;;;;;;13.81;75.55;98364.22;5011568;28;20072;-53
2023/10/18 11:17:17;;;;;;;12.27;6.47;;;;;;;13.82;74.79;98355.47;5015248;28;20050;-46
2023/10/18 11:19:51;;;;;;;12.30;6.40;;;;;;;13.79;74.67;98353.88;5022077;28;20053;-53
2023/10/18 11:22:19;;;;;;;9.43;5.50;;;;;;;13.80;74.38;98336.47;5021743;28;20038;-48
2023/10/18 11:24:49;;;;;;;10.00;5.85;;;;;;;13.78;74.76;98327.91;5017377;28;20468;-49
2023/10/18 11:27:18;;;;;;;9.30;5.18;;;;;;;13.81;74.46;98318.19;5031133;28;20057;-49
2023/10/18 11:29:46;;;;;;;8.40;5.18;;;;;;;13.79;74.29;98299.22;5032070;28;20054;-49
2023/10/18 11:32:27;;;;;;;12.07;5.75;;;;;;;13.88;74.33;98304.00;5039997;28;20068;-48
2023/10/18 11:35:09;;;;;;;15.15;5.88;;;;;;;13.78;74.62;98266.28;5033309;28;20048;-53
2023/10/18 11:37:38;;;;;;;9.60;5.88;;;;;;;13.78;74.95;98266.28;5005750;28;20054;-47
2023/10/18 11:40:14;;;;;;;10.40;5.60;;;;;;;13.83;74.04;98264.34;5034956;28;20052;-48
2023/10/18 11:43:07;;;;;;;11.55;5.45;;;;;;;13.82;73.77;98252.22;5032628;28;21656;-50
2023/10/18 11:45:36;;;;;;;9.85;4.15;;;;;;;13.89;74.60;98255.41;5051307;28;20430;-49
2023/10/18 11:48:09;;;;;;;7.25;6.15;;;;;;;13.81;73.86;98255.75;5025631;28;20049;-52
2023/10/18 11:50:50;;;;;;;9.57;8.05;;;;;;;13.85;73.98;98246.88;5022833;28;20057;-54
2023/10/18 11:53:24;;;;;;;14.02;5.93;;;;;;;13.92;73.21;98252.69;5044589;28;20077;-48
2023/10/18 11:56:00;;;;;;;12.32;6.63;;;;;;;13.91;73.80;98260.56;5024611;28;20060;-51
2023/10/18 11:58:33;;;;;;;13.00;6.53;;;;;;;13.91;73.97;98250.97;5020353;28;20048;-49
2023/10/18 12:01:00;;;;;;;9.95;6.00;;;;;;;13.86;74.16;98253.81;5038203;28;20465;-49
2023/10/18 12:03:28;;;;;;;13.35;6.07;;;;;;;13.94;74.49;98243.03;5038647;28;20465;-48
2023/10/18 12:05:56;;;;;;;14.25;7.40;;;;;;;14.01;73.87;98222.75;5041086;28;20541;-49
2023/10/18 12:08:24;;;;;;;13.75;7.15;;;;;;;14.07;74.06;98219.88;5037641;28;20045;-50
2023/10/18 12:10:53;;;;;;;11.18;6.72;;;;;;;14.05;74.23;98216.50;5027743;28;20067;-51
2023/10/18 12:13:20;;;;;;;9.52;5.63;;;;;;;14.12;74.46;98207.50;5030897;28;20049;-49
2023/10/18 12:15:48;;;;;;;14.77;4.95;;;;;;;14.18;73.82;98208.13;5042629;28;20041;-54
2023/10/18 12:18:14;;;;;;;10.35;5.53;;;;;;;14.11;74.16;98204.97;5022666;28;20054;-46
2023/10/18 12:20:43;;;;;;;9.65;4.93;;;;;;;14.16;74.73;98202.16;5013063;28;20061;-49
2023/10/18 12:23:13;;;;;;;12.30;5.45;;;;;;;14.19;74.43;98202.00;5014376;28;20053;-48
2023/10/18 12:25:42;;;;;;;14.18;6.00;;;;;;;14.14;75.00;98190.06;5020874;28;20056;-49
2023/10/18 12:28:15;;;;;;;8.27;5.28;;;;;;;14.06;75.11;98180.91;5022017;28;20060;-49
2023/10/18 12:30:43;;;;;;;10.48;6.07;;;;;;;14.12;74.54;98171.03;5023627;28;20045;-47
2023/10/18 12:33:19;;;;;;;11.18;6.65;;;;;;;14.11;75.38;98168.50;5027156;28;20060;-49
2023/10/18 12:35:48;;;;;;;9.38;5.35;;;;;;;14.12;75.24;98163.22;5025866;28;20060;-47
2023/10/18 12:38:20;;;;;;;10.20;4.50;;;;;;;14.10;75.33;98162.47;5006334;28;20056;-48
2023/10/18 12:40:52;;;;;;;10.18;5.18;;;;;;;14.16;74.82;98150.94;5019262;28;20053;-50
2023/10/18 12:43:20;;;;;;;10.05;5.20;;;;;;;14.17;74.95;98149.16;5018697;28;20042;-48
2023/10/18 12:45:50;;;;;;;7.13;5.03;;;;;;;14.12;74.94;98139.81;5026670;28;20049;-48
2023/10/18 12:48:22;;;;;;;9.50;4.97;;;;;;;14.17;74.40;98129.19;5007620;28;20689;-47
2023/10/18 12:50:51;;;;;;;11.65;5.05;;;;;;;14.14;75.25;98122.38;5022080;28;20095;-48
2023/10/18 13:04:17;;;;;;;18.50;4.28;;;;;;;14.09;75.67;98087.06;5059502;28;21046;-50
2023/10/18 13:06:46;;;;;;;9.77;4.15;;;;;;;14.16;75.68;98085.00;5035177;28;20049;-47
2023/10/18 13:14:30;;;;;;;11.20;3.80;;;;;;;14.25;75.82;98066.31;5105227;27;20397;-51
2023/10/18 13:17:03;;;;;;;9.00;3.42;;;;;;;14.32;76.01;98046.84;5080451;28;20544;-51
2023/10/18 13:19:31;;;;;;;7.70;4.18;;;;;;;14.32;75.84;98059.88;5079678;28;20718;-47
2023/10/18 13:21:59;;;;;;;9.80;3.72;;;;;;;14.38;76.03;98046.56;5079146;28;20036;-50
2023/10/18 13:24:28;;;;;;;10.30;3.75;;;;;;;14.39;75.66;98048.22;5082649;28;20459;-52
2023/10/18 13:26:59;;;;;;;7.28;3.35;;;;;;;14.43;75.16;98032.47;5081635;28;20578;-49
2023/10/18 13:29:30;;;;;;;8.00;3.10;;;;;;;14.39;75.00;98022.19;5083150;28;20056;-48